Time;durP1;ratioP1;P1;durP2;ratioP2;P2;SDS_P1;SDS_P2;PMS_P1;PMS_P2;Temp;Humidity;BMP_temperature;BMP_pressure;BME280_temperature;BME280_humidity;BME280_pressure;Samples;Min_cycle;Max_cycle;Signal;HPM_P1;HPM_P2
2021/01/12 00:00:15;;;;;;;51.85;20.90;;;;;;;-6.75;86.77;97072.69;5057822;28;20036;-64
2021/01/12 00:02:41;;;;;;;49.10;19.65;;;;;;;-6.64;87.10;97078.94;5065473;28;20510;-63
2021/01/12 00:05:07;;;;;;;48.38;20.13;;;;;;;-6.73;86.97;97078.56;5061024;28;20060;-61
2021/01/12 00:07:33;;;;;;;49.97;20.70;;;;;;;-6.76;86.75;97079.03;5080168;28;20072;-61
2021/01/12 00:09:58;;;;;;;48.58;19.15;;;;;;;-6.51;87.28;97074.31;5062814;28;20072;-62
2021/01/12 00:12:24;;;;;;;48.72;20.52;;;;;;;-6.60;86.60;97082.72;5055146;28;20123;-64
2021/01/12 00:14:49;;;;;;;59.08;23.17;;;;;;;-6.69;87.62;97084.22;5044430;28;20051;-63
2021/01/12 00:17:15;;;;;;;52.85;20.52;;;;;;;-6.66;87.52;97085.56;5035130;28;20037;-64
2021/01/12 00:19:40;;;;;;;50.65;21.15;;;;;;;-6.77;87.52;97076.63;5045543;28;20070;-62
2021/01/12 00:22:13;;;;;;;57.35;23.65;;;;;;;-6.84;88.02;97076.00;5054238;28;20036;-61
2021/01/12 00:24:49;;;;;;;48.67;20.55;;;;;;;-6.96;88.84;97063.59;5060349;28;20044;-62
2021/01/12 00:27:16;;;;;;;59.58;23.65;;;;;;;-6.98;89.60;97064.91;5048470;28;20048;-62
2021/01/12 00:29:42;;;;;;;57.65;22.58;;;;;;;-7.00;89.84;97073.13;5060546;28;20524;-61
2021/01/12 00:32:14;;;;;;;57.88;22.42;;;;;;;-6.92;89.83;97067.38;5054772;28;20400;-64
2021/01/12 00:34:39;;;;;;;55.00;21.75;;;;;;;-6.68;90.08;97058.34;5049923;28;20648;-62
2021/01/12 00:37:05;;;;;;;53.53;21.02;;;;;;;-6.50;89.57;97063.38;5054671;28;20037;-60
2021/01/12 00:39:30;;;;;;;58.78;21.85;;;;;;;-6.31;89.23;97069.22;5059975;28;20040;-63
2021/01/12 00:41:56;;;;;;;60.88;22.38;;;;;;;-6.18;88.27;97060.81;5060216;28;20131;-62
2021/01/12 00:44:26;;;;;;;55.30;21.63;;;;;;;-6.22;87.05;97064.25;5054998;28;20079;-63
2021/01/12 00:46:52;;;;;;;47.95;19.65;;;;;;;-6.22;86.88;97061.59;5060213;28;20048;-65
2021/01/12 00:49:20;;;;;;;49.15;20.27;;;;;;;-6.16;87.04;97064.06;5049923;28;20389;-63
2021/01/12 00:51:46;;;;;;;48.67;20.10;;;;;;;-5.97;87.16;97074.38;5059985;28;20040;-62
2021/01/12 00:54:14;;;;;;;52.80;20.58;;;;;;;-5.82;86.66;97071.03;5047699;28;20048;-66
2021/01/12 00:56:39;;;;;;;45.88;20.10;;;;;;;-5.73;86.21;97074.06;5051406;28;20580;-63
2021/01/12 00:59:05;;;;;;;48.20;19.02;;;;;;;-5.68;85.70;97074.91;5053516;28;20124;-62
2021/01/12 01:01:32;;;;;;;49.13;20.55;;;;;;;-5.61;85.64;97077.38;5060167;28;20516;-63
2021/01/12 01:03:57;;;;;;;46.63;19.30;;;;;;;-5.57;85.04;97078.47;5061707;28;20041;-64
2021/01/12 01:06:24;;;;;;;45.33;20.55;;;;;;;-5.55;84.87;97072.88;5070639;28;20042;-62
2021/01/12 01:08:49;;;;;;;48.30;18.70;;;;;;;-5.55;84.92;97081.69;5074015;28;20080;-64
2021/01/12 01:11:16;;;;;;;43.15;18.27;;;;;;;-5.56;84.33;97082.75;5055256;28;20663;-63
2021/01/12 01:13:42;;;;;;;47.08;19.13;;;;;;;-5.59;84.72;97081.38;5058651;28;20139;-62
2021/01/12 01:16:07;;;;;;;43.70;19.83;;;;;;;-5.61;84.43;97082.72;5047818;28;20124;-62
2021/01/12 01:18:33;;;;;;;43.17;18.73;;;;;;;-5.85;84.23;97085.69;5058110;28;20052;-62
2021/01/12 01:20:59;;;;;;;46.38;20.10;;;;;;;-6.03;84.62;97088.69;5058433;28;20077;-61
2021/01/12 01:23:25;;;;;;;41.88;18.30;;;;;;;-6.17;84.94;97085.63;5052810;28;20037;-63
2021/01/12 01:25:51;;;;;;;45.10;19.00;;;;;;;-6.32;86.21;97091.56;5059386;28;20466;-64
2021/01/12 01:28:19;;;;;;;44.17;19.35;;;;;;;-6.46;86.74;97088.50;5060323;28;20044;-61
2021/01/12 01:30:45;;;;;;;44.05;20.17;;;;;;;-6.59;86.79;97084.34;5062113;28;20147;-62
2021/01/12 01:33:10;;;;;;;52.80;20.58;;;;;;;-6.51;87.06;97087.63;5037593;28;20039;-63
2021/01/12 01:35:36;;;;;;;50.15;21.45;;;;;;;-6.50;87.24;97084.69;5054488;28;20047;-62
2021/01/12 01:38:01;;;;;;;45.30;18.83;;;;;;;-6.59;87.79;97079.00;5047957;28;20105;-64
2021/01/12 01:40:28;;;;;;;51.92;20.92;;;;;;;-6.58;87.58;97071.81;5059046;28;20071;-62
2021/01/12 01:42:53;;;;;;;47.05;20.02;;;;;;;-6.69;87.09;97065.56;5061462;28;20051;-61
2021/01/12 01:45:18;;;;;;;49.63;20.08;;;;;;;-6.71;87.57;97073.00;5058513;28;20041;-63
2021/01/12 01:47:45;;;;;;;43.85;19.95;;;;;;;-6.71;87.77;97054.34;5064596;28;20044;-64
2021/01/12 01:50:15;;;;;;;56.83;20.70;;;;;;;-6.73;87.70;97059.13;5057950;28;20048;-62
2021/01/12 01:52:43;;;;;;;49.90;21.20;;;;;;;-6.70;87.70;97057.81;5061203;28;20059;-61
2021/01/12 01:55:09;;;;;;;48.58;20.30;;;;;;;-6.65;87.64;97060.53;5041992;28;20044;-61
2021/01/12 01:57:35;;;;;;;47.15;19.55;;;;;;;-6.58;87.92;97055.84;5047212;28;20044;-62
2021/01/12 02:00:04;;;;;;;48.92;21.50;;;;;;;-6.56;88.01;97043.84;5074594;28;20059;-63
2021/01/12 02:02:30;;;;;;;42.30;19.40;;;;;;;-6.51;87.80;97037.00;5063750;28;20036;-62
2021/01/12 02:05:02;;;;;;;52.17;20.88;;;;;;;-6.46;87.51;97043.19;5083372;28;20561;-62
2021/01/12 02:07:28;;;;;;;54.72;20.77;;;;;;;-6.44;87.55;97043.75;5078548;28;20043;-62
2021/01/12 02:09:54;;;;;;;51.88;21.20;;;;;;;-6.44;87.21;97045.63;5070749;28;20045;-60
2021/01/12 02:12:28;;;;;;;46.70;19.98;;;;;;;-6.43;87.11;97048.00;5055801;28;20061;-62
2021/01/12 02:14:54;;;;;;;53.50;22.25;;;;;;;-6.56;86.94;97032.41;5045799;28;20398;-62
2021/01/12 02:17:19;;;;;;;56.35;22.02;;;;;;;-6.67;87.98;97034.13;5057065;28;20055;-62
2021/01/12 02:19:45;;;;;;;52.50;22.45;;;;;;;-6.71;88.70;97033.03;5062591;28;20507;-62
2021/01/12 02:22:18;;;;;;;52.35;21.48;;;;;;;-6.68;88.41;97043.19;5053343;28;20044;-60
2021/01/12 02:24:44;;;;;;;56.67;22.65;;;;;;;-6.56;88.47;97041.19;5075430;28;20044;-60
2021/01/12 02:27:09;;;;;;;55.83;22.08;;;;;;;-6.51;87.88;97034.34;5058099;28;20040;-63
2021/01/12 02:29:35;;;;;;;55.25;22.45;;;;;;;-6.40;88.09;97034.19;5063258;28;20044;-62
2021/01/12 02:32:00;;;;;;;50.40;22.33;;;;;;;-6.30;87.39;97028.19;5063036;28;20040;-64
2021/01/12 02:34:28;;;;;;;49.88;21.73;;;;;;;-6.30;87.02;97022.84;5056850;28;20044;-61
2021/01/12 02:36:55;;;;;;;55.05;21.10;;;;;;;-6.32;87.46;97019.59;5061261;28;20040;-63
2021/01/12 02:39:20;;;;;;;56.75;21.38;;;;;;;-6.21;87.12;97009.84;5055293;28;20596;-62
2021/01/12 02:41:45;;;;;;;49.78;20.60;;;;;;;-6.09;87.20;97015.06;5061490;28;20045;-62
2021/01/12 02:44:21;;;;;;;50.55;21.65;;;;;;;-5.86;86.55;97020.03;5055735;28;20097;-61
2021/01/12 02:46:47;;;;;;;50.40;20.55;;;;;;;-5.73;85.86;97024.16;5043407;28;20047;-64
2021/01/12 02:49:12;;;;;;;48.08;20.77;;;;;;;-5.70;85.35;97026.31;5036389;28;20037;-62
2021/01/12 02:51:38;;;;;;;48.70;19.65;;;;;;;-5.44;85.50;97021.19;5040472;28;20052;-62
2021/01/12 02:54:03;;;;;;;46.60;21.75;;;;;;;-5.28;84.86;97020.22;5039847;28;20033;-61
2021/01/12 02:56:29;;;;;;;54.42;21.92;;;;;;;-5.31;84.42;97015.41;5023725;28;20037;-62
2021/01/12 02:58:54;;;;;;;53.50;21.85;;;;;;;-5.31;84.11;97018.09;5052034;28;20028;-63
2021/01/12 03:01:20;;;;;;;43.75;20.02;;;;;;;-5.23;84.73;97003.44;5072427;28;20036;-62
2021/01/12 03:03:45;;;;;;;52.65;21.42;;;;;;;-5.14;84.30;97001.91;5080296;28;20404;-63
2021/01/12 03:06:11;;;;;;;58.58;21.10;;;;;;;-5.04;84.17;96996.63;5057641;28;20048;-63
2021/01/12 03:08:36;;;;;;;55.15;22.00;;;;;;;-5.09;83.71;96996.59;5081516;28;20489;-63
2021/01/12 03:11:02;;;;;;;48.45;21.92;;;;;;;-5.01;84.07;96995.28;5066365;28;20074;-61
2021/01/12 03:13:28;;;;;;;50.17;20.58;;;;;;;-5.08;83.52;96992.84;5058930;28;20128;-63
2021/01/12 03:15:53;;;;;;;53.33;21.73;;;;;;;-5.12;83.19;96990.97;5061829;28;20044;-61
2021/01/12 03:18:18;;;;;;;51.08;20.15;;;;;;;-5.11;83.84;97003.22;5056171;28;20438;-62
2021/01/12 03:20:44;;;;;;;51.03;22.98;;;;;;;-4.96;83.99;96991.84;5059641;28;20075;-64
2021/01/12 03:23:09;;;;;;;44.65;19.00;;;;;;;-4.76;83.70;96994.59;5056525;28;20036;-64
2021/01/12 03:25:35;;;;;;;41.53;19.45;;;;;;;-4.72;83.45;96990.34;5062220;28;20044;-64
2021/01/12 03:28:00;;;;;;;46.90;19.10;;;;;;;-4.75;83.12;96982.03;5062423;28;20092;-62
2021/01/12 03:30:26;;;;;;;47.50;20.23;;;;;;;-4.67;83.23;96981.56;5055272;28;20502;-62
2021/01/12 03:32:52;;;;;;;43.97;19.67;;;;;;;-4.64;83.03;96975.69;5057118;28;20041;-62
2021/01/12 03:35:19;;;;;;;46.17;19.85;;;;;;;-4.67;82.90;96974.31;5053571;28;20049;-63
2021/01/12 03:37:45;;;;;;;47.67;21.58;;;;;;;-4.60;83.38;96966.06;5056100;28;20131;-64
2021/01/12 03:40:10;;;;;;;54.42;23.48;;;;;;;-4.63;82.98;96963.91;5053219;28;20123;-62
2021/01/12 03:42:36;;;;;;;45.33;20.38;;;;;;;-4.64;82.88;96956.97;5053086;28;20114;-62
2021/01/12 03:45:06;;;;;;;46.72;19.58;;;;;;;-4.59;82.94;96958.84;5051382;28;20045;-60
2021/01/12 03:47:31;;;;;;;47.47;19.85;;;;;;;-4.57;83.59;96962.06;5043133;28;20045;-63
2021/01/12 03:49:57;;;;;;;46.28;20.08;;;;;;;-4.51;83.34;96958.34;5066581;28;20063;-63
2021/01/12 03:52:22;;;;;;;45.42;18.83;;;;;;;-4.50;83.21;96955.41;5066532;28;20056;-62
2021/01/12 03:54:48;;;;;;;45.70;19.13;;;;;;;-4.42;83.37;96951.41;5061341;28;20048;-64
2021/01/12 03:57:13;;;;;;;41.88;17.88;;;;;;;-4.33;83.04;96949.03;5049209;28;20040;-64
2021/01/12 03:59:39;;;;;;;42.55;18.73;;;;;;;-4.24;83.17;96956.25;5068669;28;20036;-64
2021/01/12 04:02:04;;;;;;;40.88;17.38;;;;;;;-4.15;83.07;96951.19;5042377;28;20044;-61
2021/01/12 04:04:30;;;;;;;45.15;18.95;;;;;;;-4.11;82.87;96954.94;5058019;28;20499;-62
2021/01/12 04:06:55;;;;;;;41.28;17.67;;;;;;;-4.07;83.02;96944.50;5046308;28;20091;-62
2021/01/12 04:09:20;;;;;;;45.80;20.27;;;;;;;-3.99;83.32;96951.22;5043615;28;20045;-62
2021/01/12 04:11:46;;;;;;;49.65;18.73;;;;;;;-3.86;83.13;96938.09;5045682;28;20044;-63
2021/01/12 04:14:11;;;;;;;38.92;17.70;;;;;;;-3.62;82.11;96939.44;5039942;28;20564;-63
2021/01/12 04:16:37;;;;;;;38.35;16.98;;;;;;;-3.44;81.84;96940.75;5060771;28;20509;-61
2021/01/12 04:19:02;;;;;;;39.35;16.90;;;;;;;-3.39;81.44;96940.75;5058009;28;20410;-61
2021/01/12 04:21:28;;;;;;;35.40;15.45;;;;;;;-3.10;80.24;96939.09;5052635;28;20454;-63
2021/01/12 04:23:53;;;;;;;33.03;14.90;;;;;;;-2.86;79.43;96937.66;5052571;28;20064;-64
2021/01/12 04:26:19;;;;;;;32.08;15.48;;;;;;;-2.85;79.93;96932.03;5054701;28;20513;-62
2021/01/12 04:28:45;;;;;;;36.63;14.70;;;;;;;-2.79;80.17;96920.22;5043318;28;20072;-63
2021/01/12 04:31:11;;;;;;;39.03;15.68;;;;;;;-2.71;80.10;96916.94;5043583;28;20110;-62
2021/01/12 04:33:37;;;;;;;32.72;14.13;;;;;;;-2.65;79.49;96917.72;5059579;28;20040;-63
2021/01/12 04:36:03;;;;;;;36.17;14.20;;;;;;;-2.57;79.87;96911.78;5050688;28;20048;-60
2021/01/12 04:38:29;;;;;;;31.30;14.07;;;;;;;-2.63;80.46;96917.44;5061763;28;20040;-63
2021/01/12 04:40:55;;;;;;;32.78;15.40;;;;;;;-2.61;79.99;96918.78;5049209;28;20052;-62
2021/01/12 04:43:20;;;;;;;35.13;15.10;;;;;;;-2.54;80.40;96913.09;5057104;28;20070;-62
2021/01/12 04:45:45;;;;;;;34.03;15.10;;;;;;;-2.54;81.07;96923.84;5062621;28;20072;-62
2021/01/12 04:48:11;;;;;;;34.20;14.40;;;;;;;-2.60;80.77;96914.22;5054297;28;20374;-62
2021/01/12 04:50:36;;;;;;;31.38;14.45;;;;;;;-2.61;80.92;96916.09;5057820;28;20064;-60
2021/01/12 04:53:02;;;;;;;30.20;14.80;;;;;;;-2.64;81.23;96922.00;5048799;28;20511;-60
2021/01/12 04:55:27;;;;;;;33.45;15.27;;;;;;;-2.63;81.41;96914.75;5047206;28;20044;-62
2021/01/12 04:57:53;;;;;;;37.08;15.63;;;;;;;-2.65;81.40;96916.94;5042172;28;20044;-61
2021/01/12 05:00:23;;;;;;;32.45;14.77;;;;;;;-2.58;81.35;96930.84;5063168;28;20040;-63
2021/01/12 05:03:07;;;;;;;30.70;14.40;;;;;;;-2.63;81.36;96922.81;5052455;28;20131;-64
2021/01/12 05:05:36;;;;;;;34.65;15.05;;;;;;;-2.58;81.10;96923.59;5056466;28;20091;-63
2021/01/12 05:08:04;;;;;;;34.70;15.55;;;;;;;-2.59;81.08;96922.00;5049585;28;20040;-61
2021/01/12 05:10:37;;;;;;;31.95;15.10;;;;;;;-2.50;81.13;96920.34;5057767;28;20109;-62
2021/01/12 05:13:10;;;;;;;31.77;14.02;;;;;;;-2.46;80.92;96904.50;5049778;28;20071;-61
2021/01/12 05:15:36;;;;;;;33.25;14.00;;;;;;;-2.49;80.70;96913.09;5060357;28;20040;-63
2021/01/12 05:18:05;;;;;;;33.90;14.05;;;;;;;-2.50;81.08;96912.28;5076894;28;20097;-65
2021/01/12 05:20:37;;;;;;;32.53;15.48;;;;;;;-2.38;80.93;96905.78;5056503;28;20041;-64
2021/01/12 05:23:10;;;;;;;34.00;14.93;;;;;;;-2.40;80.51;96915.97;5043389;28;20079;-61
2021/01/12 05:25:39;;;;;;;28.98;13.88;;;;;;;-2.46;81.00;96901.00;5041351;28;20069;-62
2021/01/12 05:28:12;;;;;;;34.22;15.10;;;;;;;-2.46;80.63;96895.66;5050373;28;20044;-63
2021/01/12 05:30:38;;;;;;;34.40;15.15;;;;;;;-2.45;81.08;96887.31;5056459;28;20040;-65
2021/01/12 05:33:04;;;;;;;35.75;14.52;;;;;;;-2.29;80.24;96884.53;5050011;28;20099;-62
2021/01/12 05:35:36;;;;;;;34.15;14.85;;;;;;;-2.27;79.51;96877.00;5056086;28;20052;-64
2021/01/12 05:38:04;;;;;;;33.00;15.48;;;;;;;-2.13;78.27;96881.44;5048134;28;20049;-62
2021/01/12 05:40:36;;;;;;;33.50;13.95;;;;;;;-1.98;77.82;96866.31;5058979;28;20064;-63
2021/01/12 05:43:05;;;;;;;30.27;14.38;;;;;;;-1.98;77.47;96864.44;5046622;28;20043;-63
2021/01/12 05:45:38;;;;;;;31.10;14.27;;;;;;;-2.07;77.98;96859.94;5051909;28;20522;-61
2021/01/12 05:48:08;;;;;;;32.45;14.68;;;;;;;-2.04;78.01;96856.69;5048501;28;20608;-62
2021/01/12 05:50:34;;;;;;;33.10;13.07;;;;;;;-2.01;77.96;96858.84;5057892;28;20052;-64
2021/01/12 05:53:05;;;;;;;31.25;13.57;;;;;;;-2.10;78.66;96850.56;5049993;28;20048;-62
2021/01/12 05:55:37;;;;;;;32.90;13.98;;;;;;;-2.09;79.52;96854.84;5055862;28;20037;-62
2021/01/12 05:58:10;;;;;;;31.75;14.00;;;;;;;-2.07;78.31;96855.41;5055050;28;20047;-61
2021/01/12 06:00:40;;;;;;;30.65;13.75;;;;;;;-2.05;77.92;96852.41;5071166;28;20127;-62
2021/01/12 06:03:07;;;;;;;29.83;12.82;;;;;;;-2.08;78.39;96848.41;5048963;28;20504;-64
2021/01/12 06:05:33;;;;;;;29.17;13.48;;;;;;;-2.02;77.48;96852.66;5057493;28;20055;-64
2021/01/12 06:07:58;;;;;;;30.60;13.20;;;;;;;-2.01;77.96;96853.47;5053692;28;20056;-65
2021/01/12 06:10:26;;;;;;;28.48;13.15;;;;;;;-2.08;77.85;96851.09;5052440;28;20053;-61
2021/01/12 06:12:56;;;;;;;27.48;12.40;;;;;;;-2.03;77.66;96855.63;5038608;28;20037;-62
2021/01/12 06:15:26;;;;;;;32.17;13.82;;;;;;;-2.05;77.63;96852.41;5056974;28;20040;-62
2021/01/12 06:18:04;;;;;;;30.38;13.23;;;;;;;-2.03;77.53;96844.91;5067036;28;20059;-64
2021/01/12 06:20:40;;;;;;;28.58;13.07;;;;;;;-2.03;77.87;96848.38;5071596;28;20074;-63
2021/01/12 06:23:07;;;;;;;26.45;12.18;;;;;;;-2.00;77.23;96831.72;5056475;28;20316;-61
2021/01/12 06:25:34;;;;;;;27.73;12.25;;;;;;;-1.80;75.56;96827.22;5055645;28;20576;-64
2021/01/12 06:27:59;;;;;;;28.45;13.48;;;;;;;-1.79;76.11;96832.31;5062640;28;20128;-64
2021/01/12 06:30:25;;;;;;;27.02;11.90;;;;;;;-1.76;75.70;96830.94;5046601;28;20132;-63
2021/01/12 06:32:52;;;;;;;30.02;13.45;;;;;;;-1.68;75.33;96830.31;5062166;28;20048;-62
2021/01/12 06:35:19;;;;;;;23.95;11.80;;;;;;;-1.67;75.28;96840.00;5057024;28;20037;-65
2021/01/12 06:37:49;;;;;;;26.48;12.13;;;;;;;-1.64;74.93;96833.25;5062716;28;20039;-64
2021/01/12 06:40:19;;;;;;;27.35;11.85;;;;;;;-1.65;75.86;96829.75;5057923;28;20044;-65
2021/01/12 06:42:45;;;;;;;27.63;13.20;;;;;;;-1.59;75.31;96825.13;5062199;28;20108;-62
2021/01/12 06:45:11;;;;;;;27.27;12.43;;;;;;;-1.57;75.48;96828.31;5043425;28;20657;-63
2021/01/12 06:47:37;;;;;;;28.75;12.65;;;;;;;-1.51;74.82;96832.56;5040451;28;20046;-64
2021/01/12 06:50:11;;;;;;;26.90;13.05;;;;;;;-1.44;74.25;96833.03;5063688;28;20040;-61
2021/01/12 06:52:47;;;;;;;27.30;13.05;;;;;;;-1.33;75.34;96830.22;5082325;28;20024;-61
2021/01/12 06:55:14;;;;;;;30.17;12.82;;;;;;;-1.38;73.81;96818.44;5071895;28;20091;-62
2021/01/12 06:57:46;;;;;;;30.13;13.27;;;;;;;-1.50;74.55;96820.72;5056128;28;20060;-62
2021/01/12 07:00:12;;;;;;;27.77;12.77;;;;;;;-1.50;74.38;96817.25;5053342;28;20045;-64
2021/01/12 07:02:38;;;;;;;33.25;13.82;;;;;;;-1.46;74.16;96816.41;5053946;28;20390;-64
2021/01/12 07:05:08;;;;;;;26.30;12.45;;;;;;;-1.50;75.17;96809.97;5057788;28;20037;-62
2021/01/12 07:07:36;;;;;;;;;;;;;;;-1.54;75.40;96809.75;5058946;28;20113;-63
2021/01/12 07:10:05;;;;;;;29.73;14.23;;;;;;;-1.55;75.04;96812.72;5061517;28;20551;-64
2021/01/12 07:12:31;;;;;;;32.13;15.45;;;;;;;-1.57;74.72;96820.28;5061591;28;20053;-65
2021/01/12 07:15:01;;;;;;;34.22;14.70;;;;;;;-1.38;73.65;96812.28;5061029;28;20959;-64
2021/01/12 07:17:29;;;;;;;29.55;14.30;;;;;;;-1.45;74.21;96804.56;5056683;28;20040;-64
2021/01/12 07:20:20;;;;;;;24.42;11.75;;;;;;;-1.35;73.79;96809.81;5056447;28;20141;-65
2021/01/12 07:23:04;;;;;;;24.63;11.75;;;;;;;-1.43;74.38;96810.44;5049963;28;20036;-66
2021/01/12 07:25:34;;;;;;;32.05;13.65;;;;;;;-1.43;73.86;96805.06;5050563;28;20044;-65
2021/01/12 07:28:04;;;;;;;28.25;13.23;;;;;;;-1.47;74.32;96806.72;5056708;28;20587;-65
2021/01/12 07:30:31;;;;;;;27.95;12.68;;;;;;;-1.49;74.41;96806.22;5049469;28;20458;-64
2021/01/12 07:33:05;;;;;;;26.08;11.80;;;;;;;-1.47;74.73;96806.72;5053421;28;20067;-65
2021/01/12 07:35:32;;;;;;;30.27;12.77;;;;;;;-1.51;74.33;96804.91;5051045;28;20049;-64
2021/01/12 07:37:58;;;;;;;26.98;12.68;;;;;;;-1.54;74.49;96801.69;5058407;28;20394;-64
2021/01/12 07:40:24;;;;;;;26.23;13.25;;;;;;;-1.44;74.12;96795.44;5049202;28;20049;-64
2021/01/12 07:42:52;;;;;;;23.33;11.38;;;;;;;-1.44;74.01;96799.97;5048995;28;20089;-63
2021/01/12 07:45:25;;;;;;;26.85;12.27;;;;;;;-1.43;74.20;96782.78;5048019;28;20063;-64
2021/01/12 07:47:52;;;;;;;23.90;11.15;;;;;;;-1.44;73.97;96776.63;5055311;28;20048;-64
2021/01/12 07:50:20;;;;;;;28.23;12.60;;;;;;;-1.39;73.85;96779.25;5059268;28;20505;-61
2021/01/12 07:52:46;;;;;;;24.42;12.35;;;;;;;-1.36;74.08;96769.81;5046045;28;20037;-64
2021/01/12 07:55:12;;;;;;;21.15;10.93;;;;;;;-1.32;73.72;96784.25;5053178;28;20425;-63
2021/01/12 07:57:37;;;;;;;21.73;10.40;;;;;;;-1.29;73.66;96783.69;5056003;28;20182;-64
2021/01/12 08:00:11;;;;;;;24.00;11.27;;;;;;;-1.28;73.33;96782.59;5048601;28;20144;-61
2021/01/12 08:02:39;;;;;;;24.75;10.88;;;;;;;-1.22;72.93;96780.66;5056677;28;21039;-62
2021/01/12 08:05:06;;;;;;;23.52;10.73;;;;;;;-1.18;72.92;96782.47;5050729;28;20089;-62
2021/01/12 08:07:32;;;;;;;20.38;9.75;;;;;;;-1.17;72.89;96775.19;5056029;28;20121;-63
2021/01/12 08:09:58;;;;;;;20.85;10.60;;;;;;;-1.20;72.99;96781.16;5062321;28;20505;-63
2021/01/12 08:12:24;;;;;;;26.92;11.18;;;;;;;-1.14;72.87;96781.91;5056736;28;20522;-62
2021/01/12 08:14:51;;;;;;;22.35;11.15;;;;;;;-1.12;73.11;96790.47;5058721;28;20540;-63
2021/01/12 08:17:26;;;;;;;25.02;9.55;;;;;;;-1.13;73.53;96780.78;5051311;28;20037;-63
2021/01/12 08:19:53;;;;;;;22.73;10.77;;;;;;;-1.13;73.75;96787.00;5054025;28;20044;-63
2021/01/12 08:22:18;;;;;;;20.50;10.02;;;;;;;-0.94;73.34;96772.75;5045914;28;20037;-63
2021/01/12 08:24:45;;;;;;;22.25;11.43;;;;;;;-0.92;72.93;96774.06;5048444;28;20063;-62
2021/01/12 08:27:12;;;;;;;20.83;9.90;;;;;;;-0.88;72.38;96782.34;5056409;28;20411;-64
2021/01/12 08:29:38;;;;;;;26.95;11.57;;;;;;;-0.94;73.22;96783.50;5066111;28;20044;-61
2021/01/12 08:32:06;;;;;;;23.33;10.35;;;;;;;-0.90;73.03;96779.97;5046852;28;20524;-62
2021/01/12 08:35:02;;;;;;;21.95;9.32;;;;;;;-0.93;72.55;96783.22;5059597;28;20138;-64
2021/01/12 08:37:29;;;;;;;19.92;9.52;;;;;;;-0.89;72.84;96783.44;5043047;28;20045;-63
2021/01/12 08:39:58;;;;;;;17.10;8.88;;;;;;;-0.81;72.59;96782.78;5047307;28;20043;-64
2021/01/12 08:42:25;;;;;;;17.42;9.20;;;;;;;-0.70;72.44;96775.34;5046170;28;20484;-64
2021/01/12 08:44:51;;;;;;;16.40;8.25;;;;;;;-0.71;72.34;96777.25;5068928;28;20040;-63
2021/01/12 08:47:27;;;;;;;15.23;7.32;;;;;;;-0.66;72.67;96777.19;5072003;28;20043;-62
2021/01/12 08:50:05;;;;;;;16.35;7.60;;;;;;;-0.66;72.09;96779.09;5064704;28;20040;-64
2021/01/12 08:52:31;;;;;;;14.70;7.32;;;;;;;-0.53;72.09;96772.94;5055054;28;20140;-63
2021/01/12 08:54:56;;;;;;;17.38;7.93;;;;;;;-0.50;72.32;96767.00;5055609;28;20032;-64
2021/01/12 08:57:22;;;;;;;12.00;6.25;;;;;;;-0.40;71.61;96777.59;5055948;28;20122;-63
2021/01/12 08:59:47;;;;;;;17.58;7.43;;;;;;;-0.38;71.87;96777.28;5059594;28;20048;-63
2021/01/12 09:02:21;;;;;;;14.18;7.13;;;;;;;-0.31;71.55;96785.00;5050242;28;20063;-63
2021/01/12 09:04:57;;;;;;;16.38;7.88;;;;;;;-0.33;71.70;96774.50;5033559;28;20044;-62
2021/01/12 09:07:23;;;;;;;16.15;6.90;;;;;;;-0.30;71.22;96786.59;5059605;28;20040;-63
2021/01/12 09:09:53;;;;;;;15.88;6.78;;;;;;;-0.30;71.65;96778.53;5076555;28;20056;-62
2021/01/12 09:12:19;;;;;;;12.07;6.50;;;;;;;-0.27;72.03;96778.75;5055015;28;20418;-64
2021/01/12 09:14:48;;;;;;;11.60;6.60;;;;;;;-0.32;72.57;96784.19;5055487;28;20105;-65
2021/01/12 09:17:21;;;;;;;13.77;7.03;;;;;;;-0.27;72.50;96780.59;5052140;28;20121;-63
2021/01/12 09:19:52;;;;;;;16.05;6.75;;;;;;;-0.30;72.55;96770.44;5060254;28;20036;-64
2021/01/12 09:22:19;;;;;;;11.90;6.43;;;;;;;-0.23;72.28;96777.06;5054545;28;20036;-64
2021/01/12 09:24:46;;;;;;;11.80;6.15;;;;;;;-0.24;72.53;96774.66;5066091;28;20078;-65
2021/01/12 09:27:16;;;;;;;12.85;6.82;;;;;;;-0.21;72.41;96769.47;5056108;28;20056;-62
2021/01/12 09:29:41;;;;;;;12.88;6.55;;;;;;;-0.17;72.60;96766.19;5059763;28;20412;-64
2021/01/12 09:32:07;;;;;;;12.02;5.63;;;;;;;-0.12;71.92;96766.91;5055295;28;20135;-61
2021/01/12 09:34:32;;;;;;;13.30;5.82;;;;;;;0.01;73.19;96753.78;5060532;28;20110;-63
2021/01/12 09:36:58;;;;;;;13.00;5.95;;;;;;;-0.07;71.67;96756.06;5033332;28;20041;-62
2021/01/12 09:39:26;;;;;;;11.23;6.63;;;;;;;0.13;70.89;96749.50;5052322;28;20122;-65
2021/01/12 09:41:53;;;;;;;15.35;5.57;;;;;;;0.27;71.50;96741.44;5060879;28;20122;-66
2021/01/12 09:44:18;;;;;;;13.10;5.93;;;;;;;0.09;72.02;96739.59;5059576;28;20041;-61
2021/01/12 09:46:44;;;;;;;9.43;5.50;;;;;;;0.30;72.36;96740.03;5055971;28;20039;-63
2021/01/12 09:49:09;;;;;;;12.02;4.80;;;;;;;0.14;73.43;96734.13;5057850;28;20040;-62
2021/01/12 09:51:34;;;;;;;12.70;5.28;;;;;;;0.25;72.63;96740.13;5060701;28;20044;-65
2021/01/12 09:54:00;;;;;;;8.85;4.75;;;;;;;0.15;73.25;96728.44;5044368;28;20055;-61
2021/01/12 09:56:25;;;;;;;11.43;5.78;;;;;;;0.15;73.89;96733.03;5058820;28;20044;-63
2021/01/12 09:58:52;;;;;;;14.25;7.47;;;;;;;0.10;74.52;96725.84;5069718;28;20032;-62
2021/01/12 10:01:19;;;;;;;10.65;5.88;;;;;;;0.02;75.41;96726.56;5079698;28;20032;-61
2021/01/12 10:03:45;;;;;;;11.13;5.70;;;;;;;0.08;75.43;96729.94;5084651;28;20042;-64
2021/01/12 10:06:18;;;;;;;12.27;5.88;;;;;;;0.12;75.89;96717.47;5079891;28;20369;-63
2021/01/12 10:08:43;;;;;;;10.68;5.20;;;;;;;0.08;76.15;96703.00;5081825;28;20036;-63
2021/01/12 10:11:09;;;;;;;13.50;6.63;;;;;;;0.12;76.77;96701.31;5035067;28;20110;-63
2021/01/12 10:13:34;;;;;;;12.95;5.50;;;;;;;0.21;76.78;96687.94;5058394;28;20043;-64
2021/01/12 10:16:00;;;;;;;11.55;5.32;;;;;;;0.23;76.11;96693.84;5058766;28;20128;-65
2021/01/12 10:18:25;;;;;;;13.55;5.60;;;;;;;0.18;75.94;96679.38;5058428;28;20114;-64
2021/01/12 10:20:50;;;;;;;11.30;5.85;;;;;;;0.19;75.46;96680.97;5061876;28;20508;-63
2021/01/12 10:23:16;;;;;;;16.65;7.55;;;;;;;0.25;75.73;96686.25;5056800;28;20397;-62
2021/01/12 10:25:41;;;;;;;10.18;5.15;;;;;;;0.34;75.61;96687.94;5061117;28;20116;-63
2021/01/12 10:28:06;;;;;;;11.43;5.28;;;;;;;0.41;75.35;96681.34;5055475;28;20051;-63
2021/01/12 10:30:32;;;;;;;11.20;5.55;;;;;;;0.38;74.87;96690.84;5062674;28;20402;-62
2021/01/12 10:32:57;;;;;;;13.25;5.28;;;;;;;0.45;74.63;96685.84;5061437;28;20086;-61
2021/01/12 10:35:23;;;;;;;11.07;5.45;;;;;;;0.47;74.81;96677.44;5049136;28;20460;-62
2021/01/12 10:37:50;;;;;;;9.25;5.10;;;;;;;0.46;73.79;96671.25;5038908;28;20040;-64
2021/01/12 10:40:15;;;;;;;8.52;4.90;;;;;;;0.61;73.58;96674.72;5051086;28;20420;-63
2021/01/12 10:42:42;;;;;;;6.72;3.90;;;;;;;0.81;72.99;96666.22;5051285;28;20033;-63
2021/01/12 10:45:09;;;;;;;8.85;5.03;;;;;;;0.70;72.83;96652.16;5037184;28;20036;-63
2021/01/12 10:47:35;;;;;;;7.15;3.92;;;;;;;0.64;73.07;96637.19;5058127;28;20056;-63
2021/01/12 10:50:02;;;;;;;8.60;4.85;;;;;;;0.72;72.82;96659.91;5056747;28;20125;-64
2021/01/12 10:52:31;;;;;;;7.80;4.07;;;;;;;0.73;73.12;96646.13;5055197;28;20037;-63
2021/01/12 10:54:56;;;;;;;7.50;4.57;;;;;;;0.69;74.09;96628.19;5059031;28;20037;-61
2021/01/12 10:57:22;;;;;;;9.15;4.47;;;;;;;0.68;74.62;96642.78;5055463;28;20797;-63
2021/01/12 10:59:47;;;;;;;8.60;4.78;;;;;;;0.72;74.78;96638.34;5064209;28;20032;-62
2021/01/12 11:02:13;;;;;;;11.00;4.20;;;;;;;0.71;75.46;96617.91;5054810;28;20430;-62
2021/01/12 11:04:38;;;;;;;10.00;4.80;;;;;;;0.57;76.05;96624.13;5061534;28;20032;-63
2021/01/12 11:07:04;;;;;;;8.88;4.40;;;;;;;0.63;76.89;96632.09;5058768;28;20050;-63
2021/01/12 11:09:31;;;;;;;8.15;4.30;;;;;;;0.63;77.15;96618.63;5072199;28;20045;-62
2021/01/12 11:12:02;;;;;;;9.30;5.47;;;;;;;0.62;77.05;96617.81;5077684;28;20501;-63
2021/01/12 11:14:27;;;;;;;7.68;3.95;;;;;;;0.60;78.08;96609.25;5070850;28;20056;-63
2021/01/12 11:16:53;;;;;;;7.07;3.78;;;;;;;0.63;78.17;96587.09;5071074;28;20050;-64
2021/01/12 11:19:18;;;;;;;8.10;4.93;;;;;;;0.55;78.54;96579.72;5049264;28;20036;-63
2021/01/12 11:21:46;;;;;;;7.63;4.22;;;;;;;0.54;78.94;96586.19;5065588;28;20171;-61